createdAt,value
2022-09-27T00:01:08.672Z,11.20
2022-09-27T00:03:35.455Z,10.10
2022-09-27T00:06:19.174Z,8.57
2022-09-27T00:08:45.978Z,8.15
2022-09-27T00:11:43.754Z,7.70
2022-09-27T00:14:12.880Z,7.10
2022-09-27T00:16:41.663Z,7.53
2022-09-27T00:19:12.081Z,8.52
2022-09-27T00:21:38.665Z,7.90
2022-09-27T00:24:05.848Z,6.32
2022-09-27T00:26:33.066Z,8.25
2022-09-27T00:28:59.756Z,9.13
2022-09-27T00:31:29.853Z,9.02
2022-09-27T00:33:59.396Z,9.50
2022-09-27T00:36:27.455Z,10.13
2022-09-27T00:38:55.068Z,8.38
2022-09-27T00:41:32.304Z,9.40
2022-09-27T00:44:04.956Z,8.70
2022-09-27T00:46:48.046Z,9.68
2022-09-27T00:49:31.607Z,9.70
2022-09-27T00:52:03.741Z,10.27
2022-09-27T00:54:34.131Z,10.68
2022-09-27T00:57:01.598Z,11.00
2022-09-27T00:59:36.243Z,11.43
2022-09-27T01:02:06.255Z,11.30
2022-09-27T01:04:34.823Z,13.32
2022-09-27T01:07:01.468Z,12.25
2022-09-27T01:09:29.337Z,10.75
2022-09-27T01:12:01.796Z,12.40
2022-09-27T01:14:37.242Z,10.30
2022-09-27T01:17:15.793Z,10.65
2022-09-27T01:20:06.813Z,11.75
2022-09-27T01:22:36.607Z,11.75
2022-09-27T01:25:47.228Z,12.40
2022-09-27T01:28:26.599Z,12.38
2022-09-27T01:31:09.065Z,12.45
2022-09-27T01:33:56.379Z,12.43
2022-09-27T01:36:54.391Z,18.25
2022-09-27T01:39:23.991Z,49.78
2022-09-27T01:41:59.418Z,68.72
2022-09-27T01:44:39.603Z,76.80
2022-09-27T01:47:15.601Z,91.75
2022-09-27T01:50:17.967Z,51.58
2022-09-27T01:53:00.636Z,53.10
2022-09-27T01:55:32.698Z,43.85
2022-09-27T01:58:06.683Z,39.92
2022-09-27T02:00:34.942Z,21.42
2022-09-27T02:03:14.753Z,16.38
2022-09-27T02:05:54.308Z,10.75
2022-09-27T02:08:56.664Z,10.57
2022-09-27T02:11:23.548Z,10.98
2022-09-27T02:13:57.056Z,10.68
2022-09-27T02:16:45.794Z,11.88
2022-09-27T02:19:38.660Z,11.50
2022-09-27T02:22:31.656Z,12.18
2022-09-27T02:25:19.705Z,11.95
2022-09-27T02:27:50.990Z,13.13
2022-09-27T02:30:18.401Z,13.00
2022-09-27T02:32:45.315Z,12.80
2022-09-27T02:35:33.183Z,13.55
2022-09-27T02:38:01.126Z,14.15
2022-09-27T02:40:33.134Z,14.20
2022-09-27T02:43:01.942Z,13.88
2022-09-27T02:45:37.706Z,14.02
2022-09-27T02:48:14.923Z,14.52
2022-09-27T02:50:44.318Z,14.27
2022-09-27T02:53:27.464Z,15.40
2022-09-27T02:56:03.399Z,14.60
2022-09-27T02:59:02.285Z,13.10
2022-09-27T03:02:21.429Z,12.90
2022-09-27T03:04:54.683Z,13.82
2022-09-27T03:07:22.579Z,15.05
2022-09-27T03:09:52.705Z,13.68
2022-09-27T03:12:26.028Z,13.98
2022-09-27T03:14:58.173Z,13.07
2022-09-27T03:17:25.317Z,13.18
2022-09-27T03:19:52.133Z,13.57
2022-09-27T03:22:19.544Z,14.45
2022-09-27T03:24:46.232Z,12.77
2022-09-27T03:27:13.040Z,13.40
2022-09-27T03:29:39.780Z,13.38
2022-09-27T03:32:06.422Z,13.38
2022-09-27T03:34:33.063Z,15.10
2022-09-27T03:36:59.739Z,14.82
2022-09-27T03:39:26.787Z,15.48
2022-09-27T03:41:53.446Z,16.05
2022-09-27T03:44:20.126Z,15.88
2022-09-27T03:46:47.051Z,17.20
2022-09-27T03:49:14.321Z,16.13
2022-09-27T03:51:42.057Z,16.10
2022-09-27T03:54:09.048Z,15.45
2022-09-27T03:56:35.920Z,16.48
2022-09-27T03:59:02.611Z,17.35
2022-09-27T04:01:29.317Z,17.92
2022-09-27T04:03:56.197Z,19.30
2022-09-27T04:06:24.007Z,19.45
2022-09-27T04:08:50.834Z,19.48
2022-09-27T04:11:17.677Z,21.25
2022-09-27T04:13:44.665Z,21.05
2022-09-27T04:16:11.391Z,22.33
2022-09-27T04:18:38.082Z,24.30
2022-09-27T04:21:04.902Z,20.92
2022-09-27T04:23:31.853Z,22.08
2022-09-27T04:25:58.663Z,23.02
2022-09-27T04:28:25.402Z,23.80
2022-09-27T04:30:52.405Z,27.15
2022-09-27T04:33:19.467Z,25.42
2022-09-27T04:36:04.528Z,24.63
2022-09-27T04:38:31.190Z,23.05
2022-09-27T04:40:57.976Z,22.35
2022-09-27T04:43:24.699Z,22.83
2022-09-27T04:45:51.507Z,23.33
2022-09-27T04:48:18.643Z,22.92
2022-09-27T04:50:45.299Z,24.73
2022-09-27T04:53:15.798Z,20.42
2022-09-27T04:55:47.804Z,23.00
2022-09-27T04:58:15.126Z,22.08
2022-09-27T05:00:45.510Z,20.60
2022-09-27T05:03:12.166Z,20.55
2022-09-27T05:05:38.861Z,20.98
2022-09-27T05:08:05.867Z,21.30
2022-09-27T05:10:32.915Z,20.55
2022-09-27T05:12:59.597Z,22.27
2022-09-27T05:15:26.302Z,20.58
2022-09-27T05:17:53.238Z,18.73
2022-09-27T05:20:20.030Z,20.75
2022-09-27T05:22:48.240Z,18.33
2022-09-27T05:25:14.912Z,17.77
2022-09-27T05:27:41.639Z,15.82
2022-09-27T05:30:08.622Z,17.95
2022-09-27T05:32:35.906Z,16.17
2022-09-27T05:35:02.626Z,16.48
2022-09-27T05:37:31.543Z,15.07
2022-09-27T05:39:58.527Z,18.63
2022-09-27T05:42:25.328Z,18.48
2022-09-27T05:44:52.555Z,20.08
2022-09-27T05:47:19.365Z,21.20
2022-09-27T05:49:46.296Z,18.15
2022-09-27T05:52:16.039Z,18.08
2022-09-27T05:54:44.191Z,18.88
2022-09-27T05:57:10.915Z,19.35
2022-09-27T05:59:37.550Z,18.70
2022-09-27T06:02:04.430Z,19.17
2022-09-27T06:04:31.064Z,17.80
2022-09-27T06:06:59.129Z,18.23
2022-09-27T06:09:27.501Z,18.10
2022-09-27T06:11:54.124Z,18.67
2022-09-27T06:14:20.992Z,17.80
2022-09-27T06:16:48.190Z,17.83
2022-09-27T06:19:15.309Z,18.10
2022-09-27T06:21:42.079Z,19.45
2022-09-27T06:24:08.760Z,20.33
2022-09-27T06:26:35.763Z,22.27
2022-09-27T06:29:02.861Z,17.48
2022-09-27T06:31:29.410Z,17.38
2022-09-27T06:33:56.384Z,17.70
2022-09-27T06:36:23.267Z,19.63
2022-09-27T06:38:49.895Z,18.92
2022-09-27T06:41:16.838Z,18.90
2022-09-27T06:43:43.467Z,23.48
2022-09-27T06:46:10.298Z,23.75
2022-09-27T06:48:38.592Z,20.58
2022-09-27T06:51:05.796Z,21.13
2022-09-27T06:53:32.521Z,26.67
2022-09-27T06:56:02.807Z,23.85
2022-09-27T06:58:48.312Z,23.83
2022-09-27T07:01:15.454Z,25.50
2022-09-27T07:03:43.330Z,22.00
2022-09-27T07:06:18.922Z,25.83
2022-09-27T07:08:45.665Z,24.00
2022-09-27T07:11:12.539Z,23.40
2022-09-27T07:13:43.036Z,22.90
2022-09-27T07:16:14.159Z,23.20
2022-09-27T07:18:42.640Z,25.77
2022-09-27T07:21:09.864Z,24.60
2022-09-27T07:23:37.579Z,23.98
2022-09-27T07:26:05.796Z,25.63
2022-09-27T07:28:33.433Z,22.02
2022-09-27T07:31:00.467Z,23.73
2022-09-27T07:33:27.184Z,24.85
2022-09-27T07:35:54.192Z,20.17
2022-09-27T07:38:21.154Z,21.48
2022-09-27T07:40:48.473Z,19.77
2022-09-27T07:43:15.520Z,21.58
2022-09-27T07:45:42.260Z,19.58
2022-09-27T07:48:12.921Z,21.20
2022-09-27T07:50:40.178Z,21.77
2022-09-27T07:53:07.737Z,23.00
2022-09-27T07:55:35.012Z,19.20
2022-09-27T07:58:08.129Z,21.75
2022-09-27T08:00:36.891Z,21.63
2022-09-27T08:03:22.102Z,19.17
2022-09-27T08:05:48.887Z,21.60
2022-09-27T08:08:17.379Z,21.67
2022-09-27T08:10:47.297Z,22.00
2022-09-27T08:13:18.132Z,23.38
2022-09-27T08:15:44.939Z,20.65
2022-09-27T08:18:11.643Z,23.80
2022-09-27T08:20:38.362Z,21.80
2022-09-27T08:23:05.196Z,24.25
2022-09-27T08:25:31.944Z,21.83
2022-09-27T08:28:00.670Z,23.73
2022-09-27T08:30:32.805Z,22.92
2022-09-27T08:33:01.486Z,22.85
2022-09-27T08:35:28.970Z,25.13
2022-09-27T08:38:00.750Z,22.63
2022-09-27T08:40:46.173Z,23.95
2022-09-27T08:43:31.572Z,23.35
2022-09-27T08:46:21.702Z,23.70
2022-09-27T08:48:53.929Z,19.83
2022-09-27T08:51:25.320Z,20.75
2022-09-27T08:54:02.166Z,19.90
2022-09-27T08:56:29.034Z,18.05
2022-09-27T08:59:10.496Z,17.25
2022-09-27T09:01:37.581Z,16.98
2022-09-27T09:04:04.920Z,15.80
2022-09-27T09:06:46.170Z,14.50
2022-09-27T09:09:18.860Z,12.18
2022-09-27T09:12:24.481Z,12.55
2022-09-27T09:14:54.193Z,12.80
2022-09-27T09:17:44.049Z,11.13
2022-09-27T09:20:17.000Z,11.20
2022-09-27T09:22:50.070Z,11.45
2022-09-27T09:26:04.054Z,10.93
2022-09-27T09:28:55.414Z,9.07
2022-09-27T09:32:13.057Z,9.88
2022-09-27T09:34:49.647Z,8.65
2022-09-27T09:37:16.267Z,7.60
2022-09-27T09:39:51.814Z,6.55
2022-09-27T09:42:42.024Z,7.50
2022-09-27T09:45:19.486Z,7.65
2022-09-27T09:48:18.527Z,7.88
2022-09-27T09:50:51.346Z,8.70
2022-09-27T09:53:29.204Z,7.72
2022-09-27T09:56:01.165Z,7.22
2022-09-27T09:58:33.618Z,7.40
2022-09-27T10:01:16.604Z,6.15
2022-09-27T10:03:44.085Z,6.35
2022-09-27T10:06:12.855Z,6.50
2022-09-27T10:08:40.015Z,7.05
2022-09-27T10:11:07.390Z,6.35
2022-09-27T10:13:36.247Z,6.90
2022-09-27T10:16:10.345Z,9.10
2022-09-27T10:18:38.955Z,7.70
2022-09-27T10:21:23.042Z,6.45
2022-09-27T10:24:04.809Z,5.53
2022-09-27T10:26:33.478Z,5.30
2022-09-27T10:29:22.364Z,6.07
2022-09-27T10:31:50.609Z,5.35
2022-09-27T10:34:23.103Z,6.03
2022-09-27T10:37:22.227Z,5.32
2022-09-27T10:39:53.824Z,4.90
2022-09-27T10:42:39.128Z,5.55
2022-09-27T10:45:31.130Z,5.90
2022-09-27T10:48:00.814Z,5.93
2022-09-27T10:50:49.838Z,4.57
2022-09-27T10:53:20.891Z,5.43
2022-09-27T10:55:50.883Z,5.03
2022-09-27T10:58:27.075Z,4.97
2022-09-27T11:01:01.453Z,4.93
2022-09-27T11:03:30.363Z,4.65
2022-09-27T11:05:59.469Z,5.38
2022-09-27T11:08:33.892Z,4.75
2022-09-27T11:11:28.507Z,5.38
2022-09-27T11:14:00.971Z,8.13
2022-09-27T11:16:42.175Z,4.88
2022-09-27T11:19:30.417Z,5.45
2022-09-27T11:22:29.176Z,5.25
2022-09-27T11:25:12.968Z,5.20
2022-09-27T11:28:04.369Z,4.47
2022-09-27T11:30:53.203Z,4.60
2022-09-27T11:33:52.040Z,3.75
2022-09-27T11:36:27.657Z,3.30
2022-09-27T11:39:12.526Z,3.28
2022-09-27T11:42:00.848Z,3.30
2022-09-27T11:44:48.935Z,1.95
2022-09-27T11:47:29.439Z,2.70
2022-09-27T11:50:12.841Z,3.92
2022-09-27T11:52:54.424Z,1.70
2022-09-27T11:55:21.076Z,3.22
2022-09-27T11:57:53.516Z,1.15
2022-09-27T12:00:20.944Z,3.33
2022-09-27T12:03:12.309Z,3.25
2022-09-27T12:06:07.705Z,3.13
2022-09-27T12:08:40.437Z,1.65
2022-09-27T12:11:25.368Z,1.58
2022-09-27T12:13:57.786Z,1.95
2022-09-27T12:16:27.462Z,1.00
2022-09-27T12:18:55.599Z,2.28
2022-09-27T12:21:23.157Z,1.20
2022-09-27T12:23:53.483Z,1.98
2022-09-27T12:26:43.186Z,2.05
2022-09-27T12:29:25.792Z,1.90
2022-09-27T12:32:11.001Z,7.47
2022-09-27T12:34:44.453Z,2.30
2022-09-27T12:37:18.589Z,1.33
2022-09-27T12:39:57.519Z,2.05
2022-09-27T12:42:44.175Z,1.75
2022-09-27T12:45:15.367Z,1.52
2022-09-27T12:48:17.445Z,1.10
2022-09-27T12:50:52.865Z,3.45
2022-09-27T12:53:29.294Z,2.15
2022-09-27T12:56:16.175Z,3.10
2022-09-27T12:58:54.784Z,1.25
2022-09-27T13:01:34.143Z,4.28
2022-09-27T13:04:25.393Z,2.67
2022-09-27T13:07:05.790Z,3.28
2022-09-27T13:09:41.228Z,0.73
2022-09-27T13:12:27.148Z,2.50
2022-09-27T13:15:19.517Z,1.50
2022-09-27T13:17:50.249Z,0.63
2022-09-27T13:20:35.241Z,4.00
2022-09-27T13:23:29.247Z,0.70
2022-09-27T13:26:00.946Z,0.40
2022-09-27T13:28:33.493Z,0.82
2022-09-27T13:31:05.599Z,0.85
2022-09-27T13:33:49.123Z,0.63
2022-09-27T13:36:22.987Z,0.30
2022-09-27T13:39:15.857Z,0.30
2022-09-27T13:41:45.453Z,0.38
2022-09-27T13:44:49.458Z,1.10
2022-09-27T13:47:32.430Z,0.47
2022-09-27T13:50:27.581Z,0.80
2022-09-27T13:53:26.374Z,1.20
2022-09-27T13:55:54.061Z,0.63
2022-09-27T13:58:44.049Z,3.60
2022-09-27T14:01:28.507Z,1.77
2022-09-27T14:04:01.491Z,1.38
2022-09-27T14:06:41.945Z,0.80
2022-09-27T14:09:20.935Z,1.17
2022-09-27T14:11:55.427Z,0.90
2022-09-27T14:14:29.625Z,1.20
2022-09-27T14:16:59.923Z,3.67
2022-09-27T14:19:27.773Z,1.75
2022-09-27T14:21:55.596Z,3.58
2022-09-27T14:24:29.006Z,1.05
2022-09-27T14:27:27.187Z,3.30
2022-09-27T14:29:56.683Z,1.08
2022-09-27T14:32:26.369Z,0.55
2022-09-27T14:35:38.057Z,1.25
2022-09-27T14:38:36.666Z,0.75
2022-09-27T14:41:07.644Z,1.98
2022-09-27T14:43:37.287Z,3.78
2022-09-27T14:46:09.683Z,0.60
2022-09-27T14:48:40.470Z,0.85
2022-09-27T14:51:14.277Z,0.85
2022-09-27T14:53:57.341Z,0.95
2022-09-27T14:56:30.438Z,2.97
2022-09-27T14:59:16.426Z,1.67
2022-09-27T15:01:54.048Z,1.02
2022-09-27T15:04:23.365Z,0.70
2022-09-27T15:06:50.692Z,1.75
2022-09-27T15:09:19.165Z,3.55
2022-09-27T15:11:51.584Z,6.22
2022-09-27T15:14:22.630Z,11.80
2022-09-27T15:16:52.131Z,2.78
2022-09-27T15:19:28.188Z,2.15
2022-09-27T15:21:55.797Z,6.22
2022-09-27T15:24:40.765Z,6.20
2022-09-27T15:27:24.202Z,2.63
2022-09-27T15:29:55.754Z,11.75
2022-09-27T15:32:26.184Z,4.93
2022-09-27T15:34:53.983Z,2.08
2022-09-27T15:37:33.752Z,8.23
2022-09-27T15:40:44.847Z,8.38
2022-09-27T15:43:33.018Z,10.68
2022-09-27T15:46:03.729Z,8.10
2022-09-27T15:48:32.848Z,1.70
2022-09-27T15:51:00.951Z,2.90
2022-09-27T15:53:33.624Z,8.75
2022-09-27T15:56:01.914Z,4.05
2022-09-27T15:58:29.375Z,4.07
2022-09-27T16:00:57.543Z,8.10
2022-09-27T16:03:25.726Z,2.55
2022-09-27T16:05:55.499Z,2.60
2022-09-27T16:08:23.108Z,5.00
2022-09-27T16:10:52.758Z,5.45
2022-09-27T16:13:19.379Z,5.00
2022-09-27T16:15:47.783Z,5.40
2022-09-27T16:18:14.439Z,3.25
2022-09-27T16:20:41.473Z,5.65
2022-09-27T16:23:08.588Z,5.22
2022-09-27T16:25:35.355Z,3.22
2022-09-27T16:28:04.197Z,6.15
2022-09-27T16:30:32.846Z,3.13
2022-09-27T16:32:59.891Z,2.20
2022-09-27T16:35:28.488Z,3.20
2022-09-27T16:37:55.314Z,2.90
2022-09-27T16:40:22.920Z,2.15
2022-09-27T16:42:49.986Z,3.10
2022-09-27T16:45:19.205Z,2.88
2022-09-27T16:47:46.652Z,3.35
2022-09-27T16:50:33.692Z,3.78
2022-09-27T16:53:00.452Z,4.45
2022-09-27T16:55:28.947Z,3.55
2022-09-27T16:57:58.770Z,4.03
2022-09-27T17:00:25.941Z,3.13
2022-09-27T17:02:53.371Z,3.83
2022-09-27T17:05:20.918Z,3.20
2022-09-27T17:07:51.883Z,4.53
2022-09-27T17:10:19.637Z,5.68
2022-09-27T17:12:47.471Z,3.35
2022-09-27T17:15:14.992Z,6.18
2022-09-27T17:17:42.087Z,4.22
2022-09-27T17:20:08.679Z,5.60
2022-09-27T17:22:35.307Z,6.95
2022-09-27T17:25:01.915Z,11.10
2022-09-27T17:27:28.694Z,8.30
2022-09-27T17:29:55.739Z,10.88
2022-09-27T17:32:22.948Z,7.05
2022-09-27T17:34:49.676Z,7.78
2022-09-27T17:37:16.725Z,6.93
2022-09-27T17:39:43.705Z,6.32
2022-09-27T17:42:11.392Z,6.03
2022-09-27T17:44:38.173Z,7.72
2022-09-27T17:47:23.814Z,9.55
2022-09-27T17:50:08.971Z,8.73
2022-09-27T17:52:35.612Z,8.85
2022-09-27T17:55:03.466Z,9.20
2022-09-27T17:57:30.381Z,9.18
2022-09-27T17:59:58.251Z,9.88
2022-09-27T18:02:26.337Z,10.27
2022-09-27T18:04:53.115Z,9.77
2022-09-27T18:07:20.046Z,11.50
2022-09-27T18:09:46.837Z,13.00
2022-09-27T18:12:13.902Z,12.27
2022-09-27T18:14:40.703Z,14.50
2022-09-27T18:17:27.836Z,10.15
2022-09-27T18:19:57.038Z,11.27
2022-09-27T18:22:30.373Z,11.15
2022-09-27T18:24:57.300Z,11.98
2022-09-27T18:27:23.908Z,12.88
2022-09-27T18:29:50.539Z,10.93
2022-09-27T18:32:17.118Z,10.07
2022-09-27T18:34:43.859Z,13.02
2022-09-27T18:37:10.825Z,11.30
2022-09-27T18:39:37.715Z,10.27
2022-09-27T18:42:04.646Z,8.90
2022-09-27T18:44:31.387Z,11.35
2022-09-27T18:46:58.796Z,8.40
2022-09-27T18:49:27.772Z,8.15
2022-09-27T18:51:57.277Z,10.43
2022-09-27T18:54:24.303Z,10.07
2022-09-27T18:56:52.347Z,9.35
2022-09-27T18:59:20.950Z,9.27
2022-09-27T19:01:47.899Z,9.88
2022-09-27T19:04:21.514Z,8.88
2022-09-27T19:06:51.459Z,8.27
2022-09-27T19:09:18.412Z,7.88
2022-09-27T19:11:45.442Z,6.57
2022-09-27T19:14:17.561Z,6.53
2022-09-27T19:16:47.508Z,8.02
2022-09-27T19:19:15.890Z,9.77
2022-09-27T19:21:42.721Z,10.80
2022-09-27T19:24:09.538Z,10.70
2022-09-27T19:26:36.170Z,11.88
2022-09-27T19:29:04.132Z,13.50
2022-09-27T19:31:31.368Z,13.48
2022-09-27T19:34:00.992Z,13.60
2022-09-27T19:36:30.371Z,13.20
2022-09-27T19:38:58.739Z,12.65
2022-09-27T19:41:26.937Z,14.00
2022-09-27T19:43:55.323Z,13.75
2022-09-27T19:46:23.635Z,14.27
2022-09-27T19:48:50.667Z,14.82
2022-09-27T19:51:22.766Z,16.75
2022-09-27T19:53:50.061Z,13.68
2022-09-27T19:56:16.983Z,13.82
2022-09-27T19:58:44.114Z,13.35
2022-09-27T20:01:20.614Z,38.17
2022-09-27T20:03:49.593Z,15.57
2022-09-27T20:06:18.937Z,24.17
2022-09-27T20:08:47.986Z,14.80
2022-09-27T20:11:20.307Z,14.75
2022-09-27T20:13:47.636Z,19.15
2022-09-27T20:16:17.716Z,15.68
2022-09-27T20:18:49.164Z,14.35
2022-09-27T20:21:17.477Z,17.00
2022-09-27T20:23:44.530Z,16.25
2022-09-27T20:26:14.148Z,17.30
2022-09-27T20:28:45.632Z,21.27
2022-09-27T20:31:17.865Z,21.80
2022-09-27T20:33:46.498Z,16.55
2022-09-27T20:36:18.972Z,19.00
2022-09-27T20:38:48.166Z,17.67
2022-09-27T20:41:18.222Z,20.42
2022-09-27T20:43:45.947Z,16.42
2022-09-27T20:46:17.905Z,18.02
2022-09-27T20:48:46.704Z,21.77
2022-09-27T20:51:14.338Z,18.58
2022-09-27T20:53:42.698Z,15.77
2022-09-27T20:56:23.731Z,16.80
2022-09-27T20:58:52.517Z,16.52
2022-09-27T21:01:20.727Z,14.82
2022-09-27T21:03:49.860Z,14.10
2022-09-27T21:06:16.681Z,15.70
2022-09-27T21:08:43.301Z,15.88
2022-09-27T21:11:12.519Z,15.75
2022-09-27T21:13:40.749Z,14.93
2022-09-27T21:16:09.939Z,15.43
2022-09-27T21:18:36.990Z,16.70
2022-09-27T21:21:05.476Z,15.50
2022-09-27T21:23:33.651Z,10.35
2022-09-27T21:26:05.826Z,11.63
2022-09-27T21:28:37.246Z,10.02
2022-09-27T21:31:09.504Z,5.28
2022-09-27T21:33:37.108Z,1.60
2022-09-27T21:36:05.193Z,1.10
2022-09-27T21:38:32.874Z,2.58
2022-09-27T21:41:05.378Z,0.93
2022-09-27T21:43:34.674Z,0.68
2022-09-27T21:46:06.966Z,0.80
2022-09-27T21:48:34.797Z,1.33
2022-09-27T21:51:11.634Z,11.98
2022-09-27T21:53:39.995Z,12.98
2022-09-27T21:56:07.589Z,13.63
2022-09-27T21:58:39.760Z,13.57
2022-09-27T22:01:11.410Z,14.98
2022-09-27T22:03:39.594Z,15.38
2022-09-27T22:06:09.733Z,17.88
2022-09-27T22:08:37.195Z,20.00
2022-09-27T22:11:04.958Z,20.60
2022-09-27T22:13:32.168Z,23.58
2022-09-27T22:16:03.890Z,30.98
2022-09-27T22:18:30.547Z,32.38
2022-09-27T22:21:02.654Z,50.50
2022-09-27T22:23:29.823Z,196.80
2022-09-27T22:25:57.263Z,809.13
2022-09-27T22:28:25.230Z,1014.05
2022-09-27T22:30:52.076Z,1458.88
2022-09-27T22:33:19.365Z,997.00
2022-09-27T22:35:49.664Z,1502.82
2022-09-27T22:38:16.366Z,1968.28
2022-09-27T22:40:43.054Z,356.80
2022-09-27T22:43:09.831Z,1266.93
2022-09-27T22:45:36.659Z,761.85
2022-09-27T22:48:03.328Z,918.55
2022-09-27T22:50:30.968Z,516.95
2022-09-27T22:52:57.782Z,620.28
2022-09-27T22:55:24.863Z,719.55
2022-09-27T22:57:51.487Z,259.15
2022-09-27T23:00:18.130Z,170.40
2022-09-27T23:02:44.898Z,326.45
2022-09-27T23:05:11.535Z,141.38
2022-09-27T23:07:38.099Z,455.20
2022-09-27T23:10:05.397Z,1096.35
2022-09-27T23:12:31.927Z,93.85
2022-09-27T23:14:58.599Z,462.85
2022-09-27T23:17:25.170Z,212.45
2022-09-27T23:19:51.731Z,107.07
2022-09-27T23:22:18.918Z,130.15
2022-09-27T23:24:45.505Z,232.63
2022-09-27T23:27:30.444Z,144.48
2022-09-27T23:29:57.166Z,104.75
2022-09-27T23:32:23.708Z,130.35
2022-09-27T23:34:50.327Z,181.30
2022-09-27T23:37:17.004Z,358.55
2022-09-27T23:39:43.614Z,425.25
2022-09-27T23:42:10.287Z,257.42
2022-09-27T23:44:36.933Z,136.93
2022-09-27T23:47:04.305Z,61.08
2022-09-27T23:49:32.282Z,66.10
2022-09-27T23:52:00.754Z,53.22
2022-09-27T23:54:28.199Z,53.13
2022-09-27T23:56:55.371Z,62.53
2022-09-27T23:59:22.062Z,108.45
